Terminal Aerodrome Forecast
Issued by NWS

Home | Current Version | Previous Version | Text Only | Print | Product List | Glossary Off
Versions: 1 2 3 4 5 6 7 8 9 10 11 12 13 14 15 16 17 18 19 20 21 22 23 24 25 26 27 28 29 30 31 32 33 34 35 36

217
FTUS43 KDVN 030520
TAFCID
TAF
KCID 030520Z 0306/0406 27004KT P6SM BKN090
     FM031500 27012KT P6SM SCT250
     FM032000 28014G22KT P6SM SCT200
     FM040000 27011KT P6SM SCT200 PROB30 0401/0405 -SHRA BKN050=

USA.gov is the U.S. government's official web portal to all federal, state and local government web resources and services.